Time;durP1;ratioP1;P1;durP2;ratioP2;P2;SDS_P1;SDS_P2;PMS_P1;PMS_P2;Temp;Humidity;BMP_temperature;BMP_pressure;BME280_temperature;BME280_humidity;BME280_pressure;Samples;Min_cycle;Max_cycle;Signal;HPM_P1;HPM_P2
2023/02/16 06:39:15;;;;;;;;;62.00;51.00;;;;;7.22;100.00;102364.44;5687641;23;49548;-72
2023/02/16 06:41:40;;;;;;;;;59.50;50.00;;;;;6.78;100.00;102290.47;4912985;28;49809;-70
2023/02/16 06:44:11;;;;;;;;;60.25;50.00;;;;;7.20;100.00;102359.13;4912777;28;49722;-70
2023/02/16 06:46:36;;;;;;;;;54.00;46.50;;;;;7.31;100.00;102386.78;4913544;28;49774;-68
2023/02/16 06:49:01;;;;;;;;;58.75;48.75;;;;;6.86;100.00;102304.00;4912922;28;50854;-66
2023/02/16 06:51:27;;;;;;;;;64.25;52.00;;;;;7.47;100.00;102407.81;4914212;28;49916;-66
2023/02/16 06:53:53;;;;;;;;;59.75;49.50;;;;;6.95;100.00;102320.22;4913098;28;49636;-65
2023/02/16 06:56:18;;;;;;;;;56.50;44.00;;;;;6.92;100.00;102306.97;4913817;28;50017;-65
2023/02/16 06:58:43;;;;;;;;;54.75;45.50;;;;;7.47;100.00;102417.34;4913767;28;49882;-65
2023/02/16 07:01:09;;;;;;;;;47.00;42.75;;;;;7.39;100.00;102382.03;4913963;28;49901;-65
2023/02/16 07:03:34;;;;;;;;;56.50;44.75;;;;;7.37;100.00;102383.66;4913854;28;49730;-65
2023/02/16 07:05:59;;;;;;;;;52.50;45.50;;;;;7.17;100.00;102348.50;4913974;28;49798;-65
2023/02/16 07:08:25;;;;;;;;;64.00;51.00;;;;;7.38;100.00;102382.84;4912153;28;49956;-61
2023/02/16 07:10:52;;;;;;;;;53.50;46.25;;;;;7.54;100.00;102405.56;4912912;28;49733;-61
2023/02/16 07:13:17;;;;;;;;;59.75;48.25;;;;;7.57;100.00;102409.25;4913723;28;49926;-61
2023/02/16 07:15:43;;;;;;;;;62.25;50.75;;;;;7.65;100.00;102423.69;4914011;28;49946;-63
2023/02/16 07:18:08;;;;;;;;;62.00;47.50;;;;;7.46;100.00;102384.22;4913598;28;51036;-62
2023/02/16 07:20:34;;;;;;;;;60.75;50.75;;;;;7.38;100.00;102362.84;4915292;28;49757;-66
2023/02/16 07:22:59;;;;;;;;;64.75;53.25;;;;;7.72;100.00;102419.69;4911925;28;49961;-65
2023/02/16 07:25:25;;;;;;;;;66.00;50.00;;;;;7.60;100.00;102405.91;4910345;28;49987;-64
2023/02/16 07:27:50;;;;;;;;;63.25;48.50;;;;;7.53;100.00;102380.22;4909005;28;51313;-62
2023/02/16 07:30:16;;;;;;;;;63.50;51.75;;;;;7.85;100.00;102435.31;4913354;28;49699;-63
2023/02/16 07:32:42;;;;;;;;;58.00;49.50;;;;;7.75;100.00;102402.50;4912099;28;49711;-63
2023/02/16 07:35:07;;;;;;;;;58.75;49.50;;;;;7.60;100.00;102370.22;4913705;28;49949;-63
2023/02/16 07:37:33;;;;;;;;;62.25;47.25;;;;;7.89;100.00;102420.69;4911767;28;51219;-72
2023/02/16 07:39:58;;;;;;;;;59.25;47.00;;;;;8.02;100.00;102429.34;4913255;28;49845;-64
2023/02/16 07:42:24;;;;;;;;;55.50;43.50;;;;;7.91;100.00;102401.69;4904707;28;49926;-65
2023/02/16 07:44:49;;;;;;;;;48.00;41.50;;;;;8.12;100.00;102437.72;4913371;28;50182;-64
2023/02/16 07:47:14;;;;;;;;;46.75;40.50;;;;;8.16;100.00;102430.13;4913080;28;49814;-63
2023/02/16 07:49:40;;;;;;;;;44.00;40.75;;;;;8.17;100.00;102418.84;4913453;28;50372;-71
2023/02/16 07:52:05;;;;;;;;;51.75;42.00;;;;;8.21;100.00;102406.84;4913244;28;49920;-68
2023/02/16 07:54:31;;;;;;;;;42.50;36.25;;;;;8.17;100.00;102389.16;4912937;28;49696;-65
2023/02/16 07:56:57;;;;;;;;;54.75;43.50;;;;;8.26;100.00;102406.28;4907912;28;51024;-65
2023/02/16 07:59:22;;;;;;;;;51.75;41.75;;;;;8.41;100.00;102440.31;4913046;28;49867;-65
2023/02/16 08:01:48;;;;;;;;;38.75;37.00;;;;;8.48;100.00;102429.34;4913024;28;49905;-64
2023/02/16 08:04:13;;;;;;;;;55.75;45.25;;;;;8.36;100.00;102398.97;4913305;28;49604;-65
2023/02/16 08:06:39;;;;;;;;;44.75;38.75;;;;;8.59;100.00;102437.81;4911295;28;50064;-65
2023/02/16 08:09:04;;;;;;;;;44.75;40.50;;;;;8.57;100.00;102422.00;4912579;28;49757;-64
2023/02/16 08:11:30;;;;;;;;;53.50;43.00;;;;;8.73;100.00;102446.41;4912826;28;49756;-65
2023/02/16 08:13:58;;;;;;;;;44.00;37.75;;;;;8.68;100.00;102438.28;4912996;28;49988;-65
2023/02/16 08:16:26;;;;;;;;;54.50;40.75;;;;;8.63;100.00;102425.78;4912191;28;49846;-72
2023/02/16 08:18:52;;;;;;;;;41.25;38.50;;;;;8.67;100.00;102419.88;4911512;28;49866;-67
2023/02/16 08:21:20;;;;;;;;;50.25;41.00;;;;;8.65;100.00;102408.44;4911908;28;49678;-65
2023/02/16 08:23:51;;;;;;;;;55.75;42.00;;;;;8.91;100.00;102444.81;4907559;28;50345;-65
2023/02/16 08:26:18;;;;;;;;;48.25;40.25;;;;;8.93;100.00;102434.41;4911783;28;49916;-65
2023/02/16 08:28:45;;;;;;;;;55.25;45.00;;;;;8.99;100.00;102437.38;4912630;28;49677;-66
2023/02/16 08:31:15;;;;;;;;;56.75;46.75;;;;;8.99;100.00;102419.94;4911441;28;50040;-65
2023/02/16 08:33:41;;;;;;;;;52.00;42.25;;;;;9.06;100.00;102416.81;4912815;28;49724;-65
2023/02/16 08:36:14;;;;;;;;;55.50;46.00;;;;;9.16;100.00;102407.69;4908699;28;51103;-66
2023/02/16 08:38:42;;;;;;;;;46.50;40.00;;;;;9.16;100.00;102390.25;4906369;28;50139;-65
2023/02/16 08:41:07;;;;;;;;;49.00;41.25;;;;;9.46;100.00;102418.91;4912399;28;49831;-65
2023/02/16 08:43:32;;;;;;;;;46.50;39.50;;;;;9.11;100.00;102346.31;4912687;28;49989;-66
2023/02/16 08:45:58;;;;;;;;;50.00;39.25;;;;;9.53;100.00;102421.00;4912473;28;50751;-66
2023/02/16 08:48:23;;;;;;;;;43.00;39.25;;;;;9.42;100.00;102380.25;4912412;28;49601;-65
2023/02/16 08:50:54;;;;;;;;;58.00;40.50;;;;;9.59;100.00;102389.88;4912294;28;49871;-66
2023/02/16 08:53:21;;;;;;;;;52.25;44.75;;;;;9.67;100.00;102396.41;4911992;28;49869;-65
2023/02/16 08:55:55;;;;;;;;;51.75;42.50;;;;;9.76;100.00;102395.97;4912321;28;51684;-65
2023/02/16 08:58:21;;;;;;;;;51.25;42.25;;;;;9.83;100.00;102394.53;4906670;28;49651;-65
2023/02/16 09:00:47;;;;;;;;;51.00;43.75;;;;;9.97;100.00;102425.88;4912720;28;49748;-66
2023/02/16 09:03:12;;;;;;;;;53.00;40.00;;;;;10.03;100.00;102410.44;4912802;28;49609;-66
2023/02/16 09:05:38;;;;;;;;;59.00;44.00;;;;;10.16;100.00;102427.69;4911872;28;49786;-65
2023/02/16 09:08:03;;;;;;;;;47.00;39.00;;;;;9.97;100.00;102402.28;4914308;28;49774;-65
2023/02/16 09:10:29;;;;;;;;;54.25;42.00;;;;;10.22;100.00;102432.34;4915185;28;50273;-66
2023/02/16 09:12:54;;;;;;;;;48.00;41.75;;;;;10.04;100.00;102393.00;4915811;28;49661;-66
2023/02/16 09:15:20;;;;;;;;;44.25;39.50;;;;;10.15;100.00;102386.53;4915362;28;50230;-66
2023/02/16 09:17:45;;;;;;;;;47.25;40.00;;;;;10.49;100.00;102431.06;4914137;28;49798;-66
2023/02/16 09:20:11;;;;;;;;;51.00;41.75;;;;;10.48;100.00;102420.50;4915468;28;49823;-65
2023/02/16 09:22:36;;;;;;;;;57.50;47.50;;;;;10.36;100.00;102393.66;4915580;28;49875;-66
2023/02/16 09:25:02;;;;;;;;;44.50;38.25;;;;;10.58;100.00;102415.75;4914877;28;49733;-66
2023/02/16 09:27:28;;;;;;;;;46.00;41.75;;;;;10.81;100.00;102452.72;4915140;28;49663;-67
2023/02/16 09:29:53;;;;;;;;;50.75;40.25;;;;;10.78;100.00;102432.44;4915542;28;49937;-66
2023/02/16 09:32:18;;;;;;;;;47.75;41.25;;;;;10.89;100.00;102441.72;4912714;28;49934;-66
2023/02/16 09:34:44;;;;;;;;;40.50;38.25;;;;;10.53;100.00;102369.13;4915041;28;50929;-65
2023/02/16 09:37:10;;;;;;;;;47.50;40.00;;;;;10.99;100.00;102408.88;4915107;28;49954;-67
2023/02/16 09:39:35;;;;;;;;;41.00;37.00;;;;;11.29;100.00;102447.88;4914742;28;49795;-65
2023/02/16 09:42:20;;;;;;;;;39.50;35.50;;;;;11.38;100.00;102445.66;4915154;28;50308;-66
2023/02/16 09:45:12;;;;;;;;;48.00;41.25;;;;;11.51;100.00;102461.16;4914680;28;50812;-66
2023/02/16 09:47:46;;;;;;;;;49.00;40.25;;;;;11.38;100.00;102412.38;4913219;28;49929;-67
2023/02/16 09:50:24;;;;;;;;;52.50;44.00;;;;;11.64;100.00;102424.03;4914937;28;50204;-66
2023/02/16 09:53:12;;;;;;;;;46.00;40.50;;;;;11.88;100.00;102437.38;4915232;28;49711;-65
2023/02/16 09:56:01;;;;;;;;;47.25;39.75;;;;;11.94;100.00;102448.13;4914882;28;50827;-65
2023/02/16 09:58:38;;;;;;;;;47.00;39.25;;;;;11.85;100.00;102437.22;4911083;28;49927;-66
2023/02/16 10:01:39;;;;;;;;;47.00;39.00;;;;;11.97;100.00;102428.97;4914889;28;49782;-66
2023/02/16 10:04:34;;;;;;;;;48.75;40.00;;;;;11.82;100.00;102387.09;4905265;28;50141;-67
2023/02/16 10:07:31;;;;;;;;;49.50;39.25;;;;;12.22;100.00;102439.66;4914322;28;49973;-69
2023/02/16 10:09:59;;;;;;;;;40.25;37.75;;;;;12.22;100.00;102408.06;4913147;28;49800;-75
2023/02/16 10:12:37;;;;;;;;;44.75;37.50;;;;;12.40;100.00;102436.88;4914622;28;49714;-69
2023/02/16 10:15:12;;;;;;;;;40.00;36.75;;;;;12.45;100.00;102431.75;4896885;28;49961;-69
2023/02/16 10:17:43;;;;;;;;;43.50;37.00;;;;;12.10;100.00;102380.34;4891081;28;49903;-71
2023/02/16 10:20:24;;;;;;;;;36.50;33.50;;;;;12.52;100.00;102460.16;4893652;28;49861;-69
2023/02/16 10:23:21;;;;;;;;;35.25;34.25;;;;;12.58;100.00;102450.75;4892286;28;49876;-70
2023/02/16 10:26:05;;;;;;;;;47.75;36.25;;;;;12.57;100.00;102435.81;4890292;28;50219;-67
2023/02/16 10:28:47;;;;;;;;;39.00;35.50;;;;;12.69;100.00;102440.63;4888156;28;49849;-69
2023/02/16 10:31:39;;;;;;;;;43.75;37.00;;;;;12.83;100.00;102446.44;4892520;28;49876;-69
2023/02/16 10:34:19;;;;;;;;;35.75;29.75;;;;;12.83;100.00;102447.31;4890136;28;50361;-67
2023/02/16 10:36:56;;;;;;;;;31.75;29.00;;;;;12.87;100.00;102454.53;4891303;28;50105;-64
2023/02/16 10:39:41;;;;;;;;;26.50;24.25;;;;;12.96;100.00;102458.38;4893568;28;50807;-66
2023/02/16 10:42:25;;;;;;;;;37.75;33.75;;;;;13.01;100.00;102452.41;4889407;28;49965;-67
2023/02/16 10:45:01;;;;;;;;;36.75;34.75;;;;;12.99;100.00;102451.47;4887708;28;49922;-66
2023/02/16 10:47:37;;;;;;;;;33.00;30.50;;;;;12.97;100.00;102433.78;4899517;28;50269;-66
2023/02/16 10:50:04;;;;;;;;;34.00;32.25;;;;;13.06;100.00;102434.13;4887655;28;50727;-66
2023/02/16 10:52:36;;;;;;;;;28.25;28.25;;;;;13.04;100.00;102433.19;4888312;28;49637;-69
2023/02/16 10:55:02;;;;;;;;;41.00;34.00;;;;;13.08;100.00;102438.63;4896595;28;49824;-67
2023/02/16 10:57:31;;;;;;;;;32.75;27.75;;;;;13.12;100.00;102451.09;4893470;28;49887;-67
2023/02/16 11:00:00;;;;;;;;;30.00;26.50;;;;;12.99;100.00;102425.09;4886739;28;51001;-66
2023/02/16 11:02:33;;;;;;;;;24.75;23.75;;;;;13.10;100.00;102433.41;4892537;28;49953;-66
2023/02/16 11:05:00;;;;;;;;;32.00;31.00;;;;;13.15;100.00;102422.19;4891950;28;49732;-66
2023/02/16 11:07:28;;;;;;;;;31.25;28.75;;;;;13.37;100.00;102449.38;4888514;28;49986;-66
2023/02/16 11:09:57;;;;;;;;;30.00;26.75;;;;;13.47;100.00;102448.88;4889030;28;50829;-66
2023/02/16 11:12:34;;;;;;;;;28.75;28.75;;;;;13.38;100.00;102408.97;4890762;28;49981;-66
2023/02/16 11:15:07;;;;;;;;;23.75;23.25;;;;;13.60;100.00;102429.06;4895106;28;50755;-65
2023/02/16 11:17:56;;;;;;;;;27.00;25.50;;;;;13.51;100.00;102399.72;4891156;28;49819;-69
2023/02/16 11:20:43;;;;;;;;;19.50;19.50;;;;;13.78;100.00;102437.63;4891089;28;51540;-67
2023/02/16 11:23:12;;;;;;;;;27.50;26.00;;;;;13.87;100.00;102437.06;4889874;28;50407;-67
2023/02/16 11:25:37;;;;;;;;;29.75;25.50;;;;;13.58;100.00;102384.16;4891455;28;50146;-66
2023/02/16 11:28:04;;;;;;;;;30.75;26.75;;;;;13.67;100.00;102396.78;4900012;28;50056;-67
2023/02/16 11:30:35;;;;;;;;;24.50;23.25;;;;;13.98;100.00;102441.84;4894694;28;50915;-70
2023/02/16 11:33:21;;;;;;;;;24.50;19.00;;;;;13.86;100.00;102416.78;4890366;28;51201;-69
2023/02/16 11:35:46;;;;;;;;;30.50;22.75;;;;;13.65;100.00;102380.91;4893446;28;50042;-69
2023/02/16 11:38:33;;;;;;;;;24.75;24.00;;;;;13.65;100.00;102393.19;4895860;28;49759;-69
2023/02/16 11:41:05;;;;;;;;;25.25;22.25;;;;;13.56;100.00;102380.59;4895814;28;50734;-69
2023/02/16 11:43:35;;;;;;;;;27.00;23.75;;;;;13.42;100.00;102355.47;4903883;28;50401;-69
2023/02/16 11:46:15;;;;;;;;;21.00;20.50;;;;;13.78;100.00;102427.06;4908016;28;49695;-66
2023/02/16 11:48:41;;;;;;;;;27.25;24.75;;;;;13.55;100.00;102389.34;4900135;28;50029;-67
2023/02/16 11:51:09;;;;;;;;;23.25;21.50;;;;;13.70;100.00;102420.63;4891498;28;50616;-67
2023/02/16 11:53:41;;;;;;;;;28.25;26.25;;;;;13.23;100.00;102334.59;4891298;28;49967;-71
2023/02/16 11:56:09;;;;;;;;;21.25;19.75;;;;;13.66;100.00;102403.81;4895231;28;49795;-66
2023/02/16 11:58:35;;;;;;;;;22.00;22.00;;;;;13.52;100.00;102383.97;4908718;28;50380;-69
2023/02/16 12:01:22;;;;;;;;;24.25;23.00;;;;;13.73;100.00;102394.38;4907540;28;50467;-70
2023/02/16 12:04:27;;;;;;;;;20.00;18.00;;;;;13.79;100.00;102401.56;4895526;28;49835;-74
2023/02/16 12:07:23;;;;;;;;;23.75;21.50;;;;;13.87;100.00;102398.34;4894539;28;49911;-69
2023/02/16 12:10:22;;;;;;;;;24.50;22.25;;;;;13.85;100.00;102405.31;4890638;28;50213;-68
2023/02/16 12:13:21;;;;;;;;;20.75;19.25;;;;;13.74;100.00;102368.00;4892867;28;49951;-68
2023/02/16 12:15:53;;;;;;;;;22.50;18.50;;;;;13.92;100.00;102391.50;4891313;28;50049;-68
2023/02/16 12:18:27;;;;;;;;;18.75;18.00;;;;;13.88;100.00;102373.72;4889280;28;50783;-71
2023/02/16 12:21:19;;;;;;;;;18.50;17.00;;;;;13.64;100.00;102326.34;4887844;28;49957;-69
2023/02/16 12:24:06;;;;;;;;;21.00;20.25;;;;;14.03;100.00;102384.81;4912500;28;52771;-68
2023/02/16 12:26:46;;;;;;;;;19.25;17.00;;;;;14.00;100.00;102371.53;4884681;28;49836;-68
2023/02/16 12:29:12;;;;;;;;;19.75;18.00;;;;;14.14;100.00;102387.78;4897010;28;50241;-67
2023/02/16 12:31:59;;;;;;;;;14.00;13.75;;;;;13.98;100.00;102335.31;4888945;28;50108;-68
2023/02/16 12:34:36;;;;;;;;;24.75;18.00;;;;;14.23;100.00;102369.59;4903745;28;51638;-68
2023/02/16 12:37:23;;;;;;;;;14.25;14.25;;;;;14.30;100.00;102350.47;4911834;28;49917;-70
2023/02/16 12:39:55;;;;;;;;;20.50;14.75;;;;;14.31;100.00;102365.44;4912442;28;49890;-72
2023/02/16 12:42:29;;;;;;;;;11.25;10.75;;;;;14.33;100.00;102353.19;4914220;28;49668;-67
2023/02/16 12:45:02;;;;;;;;;10.75;8.75;;;;;14.08;100.00;102300.44;4914496;28;50685;-70
2023/02/16 12:47:46;;;;;;;;;13.00;11.00;;;;;14.00;100.00;102280.84;4915361;28;49854;-70
2023/02/16 12:50:27;;;;;;;;;11.75;10.50;;;;;14.44;100.00;102358.78;4916126;28;49669;-75
2023/02/16 12:52:53;;;;;;;;;11.25;10.25;;;;;14.48;100.00;102358.09;4915991;28;49746;-71
2023/02/16 12:55:25;;;;;;;;;14.25;11.75;;;;;14.40;100.00;102341.06;4915835;28;50769;-72
2023/02/16 12:58:00;;;;;;;;;11.00;10.00;;;;;14.49;100.00;102333.44;4915583;28;49850;-73
2023/02/16 13:00:35;;;;;;;;;13.75;12.75;;;;;14.70;100.00;102356.97;4910376;28;50148;-68
2023/02/16 13:03:15;;;;;;;;;13.50;12.50;;;;;14.32;100.00;102273.88;4915701;28;49831;-71
2023/02/16 13:05:41;;;;;;;;;10.25;10.25;;;;;14.84;100.00;102347.66;4911188;28;49900;-70
2023/02/16 13:08:23;;;;;;;;;15.75;13.00;;;;;14.92;100.00;102344.34;4907264;28;49978;-67
2023/02/16 13:10:57;;;;;;;;;12.00;11.50;;;;;14.87;100.00;102323.09;4915631;28;49885;-70
2023/02/16 13:13:25;;;;;;;;;14.25;12.50;;;;;14.97;100.00;102334.81;4908168;28;49953;-69
2023/02/16 13:16:17;;;;;;;;;11.75;11.75;;;;;14.92;100.00;102323.19;4912990;28;51029;-67
2023/02/16 13:18:47;;;;;;;;;10.00;10.00;;;;;15.02;100.00;102335.81;4906739;28;49920;-68
2023/02/16 13:21:28;;;;;;;;;12.00;11.00;;;;;14.94;100.00;102305.63;4912536;28;49689;-72
2023/02/16 13:24:25;;;;;;;;;11.50;11.00;;;;;15.14;100.00;102325.56;4912208;28;50016;-73
2023/02/16 13:27:02;;;;;;;;;12.75;12.00;;;;;15.21;100.00;102319.59;4911018;28;49707;-70
2023/02/16 13:29:43;;;;;;;;;11.25;10.25;;;;;15.29;100.00;102320.69;4909395;28;49747;-70
2023/02/16 13:32:27;;;;;;;;;10.00;10.00;;;;;15.12;100.00;102277.03;4905779;28;50218;-73
2023/02/16 13:35:11;;;;;;;;;9.75;9.25;;;;;15.40;100.00;102305.09;4910304;28;49772;-70
2023/02/16 13:38:04;;;;;;;;;10.25;9.00;;;;;15.35;100.00;102298.81;4907559;28;51037;-72
2023/02/16 13:40:30;;;;;;;;;6.75;6.75;;;;;15.31;96.59;102297.81;4908740;28;49736;-71
2023/02/16 13:43:01;;;;;;;;;7.25;5.00;;;;;15.27;94.37;102295.97;4910702;28;49962;-68
2023/02/16 13:45:31;;;;;;;;;5.75;5.00;;;;;15.06;94.95;102243.41;4908023;28;50222;-69
2023/02/16 13:47:57;;;;;;;;;5.00;5.00;;;;;15.32;95.94;102288.13;4905799;28;50749;-69
2023/02/16 13:50:27;;;;;;;;;8.50;6.50;;;;;15.15;96.42;102258.59;4908947;28;49716;-71
2023/02/16 13:52:56;;;;;;;;;5.75;5.75;;;;;15.04;93.59;102220.38;4912500;28;49625;-69
2023/02/16 13:55:32;;;;;;;;;7.75;7.25;;;;;15.09;95.29;102216.13;4908277;28;49744;-68
2023/02/16 13:58:06;;;;;;;;;6.00;5.50;;;;;15.50;92.92;102266.53;4914347;28;50812;-68
2023/02/16 14:00:48;;;;;;;;;6.75;6.00;;;;;15.54;92.66;102266.66;4912794;28;49787;-68
2023/02/16 14:03:18;;;;;;;;;10.00;9.00;;;;;15.63;94.13;102268.63;4906187;28;49813;-68
2023/02/16 14:05:46;;;;;;;;;6.00;6.00;;;;;15.51;93.18;102241.84;4914909;28;49984;-68
2023/02/16 14:08:29;;;;;;;;;5.00;5.00;;;;;15.73;92.39;102263.63;4910874;28;50622;-68
2023/02/16 14:11:09;;;;;;;;;5.00;5.00;;;;;15.73;91.10;102258.34;4914342;28;49733;-68
2023/02/16 14:13:37;;;;;;;;;8.25;7.50;;;;;15.88;89.83;102272.75;4914273;28;49919;-68
2023/02/16 14:16:06;;;;;;;;;8.00;7.25;;;;;15.97;90.58;102275.63;4913146;28;49945;-68
2023/02/16 14:18:41;;;;;;;;;9.00;6.25;;;;;16.03;88.93;102271.38;4913265;28;49976;-69
2023/02/16 14:21:24;;;;;;;;;5.75;5.00;;;;;16.07;86.88;102280.28;4907998;28;49665;-67
2023/02/16 14:23:54;;;;;;;;;5.75;5.75;;;;;15.97;87.50;102260.63;4905904;28;49783;-67
2023/02/16 14:26:20;;;;;;;;;8.00;8.00;;;;;16.10;88.16;102268.84;4906602;28;49818;-67
2023/02/16 14:29:08;;;;;;;;;8.75;7.00;;;;;16.25;88.08;102269.19;4913761;28;49874;-66
2023/02/16 14:31:43;;;;;;;;;7.50;7.50;;;;;16.12;88.87;102236.25;4914208;28;49771;-72
2023/02/16 14:34:18;;;;;;;;;9.00;7.00;;;;;16.08;90.23;102229.06;4905753;28;50081;-72
2023/02/16 14:37:08;;;;;;;;;10.00;7.50;;;;;16.35;91.45;102262.31;4908537;28;49663;-72
2023/02/16 14:39:35;;;;;;;;;6.25;6.25;;;;;16.37;90.69;102282.69;4913811;28;50034;-74
2023/02/16 14:42:08;;;;;;;;;7.00;4.50;;;;;16.00;91.40;102194.47;4914634;28;49778;-76
2023/02/16 14:44:57;;;;;;;;;5.75;5.75;;;;;16.28;92.46;102230.38;4909948;28;50080;-72
2023/02/16 14:47:41;;;;;;;;;5.75;5.75;;;;;16.47;92.46;102258.16;4908550;28;49757;-72
2023/02/16 14:50:20;;;;;;;;;9.00;6.50;;;;;16.13;92.61;102211.53;4912135;28;52947;-73
2023/02/16 14:53:00;;;;;;;;;10.00;5.00;;;;;16.51;93.82;102269.75;4912632;28;49817;-73
2023/02/16 14:55:43;;;;;;;;;5.00;5.00;;;;;16.49;94.50;102282.94;4913394;28;49789;-73
2023/02/16 14:58:21;;;;;;;;;6.25;5.25;;;;;16.50;94.00;102267.94;4913886;28;49994;-73
2023/02/16 15:01:17;;;;;;;;;4.75;4.75;;;;;16.46;92.84;102263.44;4912233;28;51660;-73
2023/02/16 15:03:49;;;;;;;;;4.00;3.50;;;;;16.20;90.86;102229.31;4911093;28;49709;-74
2023/02/16 15:06:24;;;;;;;;;8.00;5.75;;;;;16.31;89.52;102264.91;4912649;28;50001;-73
2023/02/16 15:08:57;;;;;;;;;5.00;5.00;;;;;16.17;89.65;102261.06;4908035;28;49742;-73
2023/02/16 15:12:20;;;;;;;;;2.75;2.00;;;;;16.17;88.16;102271.66;4912973;28;50790;-75
2023/02/16 15:14:24;;;;;;;;;3.75;3.75;;;;;15.87;87.17;102220.66;4907994;28;50008;-73
2023/02/16 15:16:52;;;;;;;;;1.00;1.00;;;;;16.12;88.75;102272.44;4913435;28;49832;-73
2023/02/16 15:19:23;;;;;;;;;3.00;3.00;;;;;15.62;88.28;102182.16;4903273;28;49755;-73
2023/02/16 15:22:22;;;;;;;;;4.00;2.25;;;;;15.66;86.94;102191.97;4906267;28;52321;-75
2023/02/16 15:25:00;;;;;;;;;2.25;2.25;;;;;16.19;86.41;102274.34;4912758;28;49905;-73
2023/02/16 15:27:27;;;;;;;;;2.25;2.00;;;;;16.18;86.53;102270.81;4902890;28;49820;-72
2023/02/16 15:30:08;;;;;;;;;4.75;4.00;;;;;16.13;86.18;102271.59;4909568;28;49760;-73
2023/02/16 15:32:38;;;;;;;;;3.00;3.00;;;;;15.87;86.42;102229.50;4908090;28;49754;-74
2023/02/16 15:35:12;;;;;;;;;4.00;3.50;;;;;15.41;87.12;102156.03;4914957;28;50127;-68
2023/02/16 15:37:39;;;;;;;;;4.00;4.00;;;;;15.61;86.47;102196.25;4924640;28;49763;-67
2023/02/16 15:40:24;;;;;;;;;2.75;2.75;;;;;15.98;86.87;102262.41;4929482;28;49380;-78
2023/02/16 15:42:52;;;;;;;;;3.50;3.00;;;;;15.80;87.43;102240.81;4919455;28;49976;-69
2023/02/16 15:45:34;;;;;;;;;4.25;4.00;;;;;15.79;86.36;102225.78;4912775;28;49961;-72
2023/02/16 15:48:36;;;;;;;;;3.00;3.00;;;;;15.81;86.20;102228.47;4906511;28;49613;-69
2023/02/16 15:51:23;;;;;;;;;3.00;3.00;;;;;15.97;83.03;102275.63;4889278;29;50010;-72
2023/02/16 15:53:56;;;;;;;;;3.00;3.00;;;;;15.81;84.38;102270.81;4909247;28;49867;-72
2023/02/16 15:56:36;;;;;;;;;5.25;4.00;;;;;15.67;84.35;102263.47;4905724;28;49737;-75
2023/02/16 15:59:31;;;;;;;;;4.00;4.00;;;;;15.64;84.31;102268.69;4911491;28;50135;-72
2023/02/16 16:02:10;;;;;;;;;2.00;2.00;;;;;15.15;84.62;102195.09;4905401;28;49812;-73
2023/02/16 16:04:39;;;;;;;;;3.25;3.25;;;;;15.52;85.96;102278.03;4904319;28;50018;-74
2023/02/16 16:07:07;;;;;;;;;3.75;3.00;;;;;14.97;86.46;102211.44;4909637;28;49683;-73
2023/02/16 16:09:34;;;;;;;;;8.50;5.75;;;;;14.96;86.67;102187.56;4911775;28;49816;-74
2023/02/16 16:12:07;;;;;;;;;3.00;3.00;;;;;14.99;87.44;102208.81;4916637;28;49857;-72
2023/02/16 16:14:37;;;;;;;;;5.25;4.50;;;;;14.14;89.17;102086.72;4912431;28;50241;-75
2023/02/16 16:17:03;;;;;;;;;4.00;4.00;;;;;14.82;90.31;102201.31;4910224;28;50001;-68
2023/02/16 16:19:36;;;;;;;;;4.00;4.00;;;;;15.21;91.00;102290.50;4911036;28;50119;-69
2023/02/16 16:22:03;;;;;;;;;2.00;2.00;;;;;15.10;92.78;102278.75;4912307;28;49687;-70
2023/02/16 16:24:39;;;;;;;;;2.50;2.25;;;;;15.15;92.24;102285.97;4902409;28;51945;-69
2023/02/16 16:27:10;;;;;;;;;3.25;3.00;;;;;15.15;92.30;102285.03;4904066;28;49728;-69
2023/02/16 16:29:42;;;;;;;;;4.00;4.00;;;;;14.91;93.50;102250.03;4905861;28;50044;-78
2023/02/16 16:32:28;;;;;;;;;8.00;5.50;;;;;15.07;93.52;102274.28;4902290;28;49937;-71
2023/02/16 16:34:54;;;;;;;;;6.75;5.75;;;;;14.97;94.19;102250.19;4901909;28;50922;-70
2023/02/16 16:37:32;;;;;;;;;4.50;4.50;;;;;14.42;94.44;102172.00;4902805;28;49761;-69
2023/02/16 16:40:26;;;;;;;;;4.00;4.00;;;;;14.86;94.31;102255.16;4903756;28;49728;-69
2023/02/16 16:43:11;;;;;;;;;7.50;6.75;;;;;14.86;93.92;102274.59;4900706;28;50001;-69
2023/02/16 16:45:40;;;;;;;;;2.50;2.25;;;;;14.79;94.49;102269.09;4917833;28;51519;-72
2023/02/16 16:48:16;;;;;;;;;8.25;6.75;;;;;14.69;94.44;102257.38;4903917;28;49901;-67
2023/02/16 16:50:42;;;;;;;;;6.50;5.25;;;;;14.50;95.11;102231.28;4901307;28;50190;-67
2023/02/16 16:53:50;;;;;;;;;5.75;3.50;;;;;14.70;95.94;102264.44;4904904;28;49970;-70
2023/02/16 16:56:16;;;;;;;;;9.25;7.50;;;;;14.36;97.80;102244.06;4871049;29;51688;-70
2023/02/16 16:58:42;;;;;;;;;5.25;5.25;;;;;14.51;99.18;102254.22;4900686;28;49891;-70
2023/02/16 17:01:11;;;;;;;;;4.75;4.75;;;;;14.63;100.00;102283.63;4904233;28;50068;-69
2023/02/16 17:03:36;;;;;;;;;5.50;5.50;;;;;14.00;99.98;102183.16;4903629;28;49999;-70
2023/02/16 17:06:02;;;;;;;;;8.00;6.75;;;;;14.29;99.65;102250.94;4905588;28;49774;-67
2023/02/16 17:08:27;;;;;;;;;8.00;5.25;;;;;14.42;100.00;102280.34;4902804;28;49891;-68
2023/02/16 17:10:54;;;;;;;;;5.00;5.00;;;;;14.45;100.00;102286.63;4903227;28;50679;-69
2023/02/16 17:13:20;;;;;;;;;7.75;7.75;;;;;14.43;100.00;102295.34;4902543;28;50498;-68
2023/02/16 17:15:56;;;;;;;;;6.00;6.00;;;;;14.41;100.00;102286.47;4903202;28;50014;-69
2023/02/16 17:18:22;;;;;;;;;8.00;6.50;;;;;14.28;100.00;102270.28;4904852;28;49881;-68
2023/02/16 17:20:48;;;;;;;;;4.00;4.00;;;;;14.38;100.00;102296.94;4903854;28;49863;-69
2023/02/16 17:23:16;;;;;;;;;10.75;9.25;;;;;14.21;100.00;102270.03;4902677;28;50249;-69
2023/02/16 17:25:42;;;;;;;;;9.00;9.00;;;;;14.32;100.00;102298.56;4903608;28;50579;-68
2023/02/16 17:28:08;;;;;;;;;8.00;5.50;;;;;14.28;100.00;102299.34;4907231;28;49966;-69
2023/02/16 17:30:35;;;;;;;;;8.00;8.00;;;;;14.26;100.00;102297.47;4910488;28;49865;-68
2023/02/16 17:33:01;;;;;;;;;8.25;6.00;;;;;13.92;100.00;102250.69;4908533;28;50673;-68
2023/02/16 17:35:29;;;;;;;;;9.25;8.50;;;;;13.56;100.00;102187.97;4906625;28;49898;-69
2023/02/16 17:37:55;;;;;;;;;10.00;8.75;;;;;13.94;100.00;102264.81;4905106;28;49906;-71
2023/02/16 17:40:23;;;;;;;;;8.00;8.00;;;;;14.07;100.00;102285.44;4912033;28;49992;-69
2023/02/16 17:42:50;;;;;;;;;11.00;10.25;;;;;13.66;100.00;102226.09;4914650;28;49776;-67
2023/02/16 17:45:19;;;;;;;;;9.50;9.50;;;;;13.23;100.00;102200.09;4914515;28;50834;-68
2023/02/16 17:47:45;;;;;;;;;8.25;8.00;;;;;14.16;100.00;102316.53;4914669;28;49752;-67
2023/02/16 17:50:13;;;;;;;;;9.25;9.25;;;;;13.01;100.00;102166.81;4914512;28;49973;-68
2023/02/16 17:52:38;;;;;;;;;7.50;7.50;;;;;14.07;100.00;102319.78;4914517;28;50131;-67
2023/02/16 17:55:04;;;;;;;;;9.25;6.00;;;;;13.76;100.00;102270.41;4914494;28;50633;-72
2023/02/16 17:57:30;;;;;;;;;4.75;4.75;;;;;14.02;100.00;102311.72;4914803;28;49976;-75
2023/02/16 17:59:55;;;;;;;;;12.75;11.75;;;;;14.10;100.00;102342.78;4914630;28;50139;-72
2023/02/16 18:02:20;;;;;;;;;11.00;7.25;;;;;13.28;100.00;102204.66;4914834;28;49798;-70
2023/02/16 18:04:46;;;;;;;;;8.50;8.50;;;;;13.85;100.00;102305.00;4914956;28;50471;-74
2023/02/16 18:07:13;;;;;;;;;12.75;10.00;;;;;14.04;100.00;102344.34;4908867;28;49892;-67
2023/02/16 18:09:39;;;;;;;;;8.50;8.25;;;;;13.86;100.00;102329.66;4906697;28;49722;-67
2023/02/16 18:12:05;;;;;;;;;6.25;6.25;;;;;13.90;100.00;102321.00;4910605;28;49816;-71
2023/02/16 18:14:30;;;;;;;;;6.00;6.00;;;;;13.96;100.00;102347.59;4914667;28;49731;-67
2023/02/16 18:16:58;;;;;;;;;8.50;8.50;;;;;13.92;100.00;102343.06;4914462;28;49699;-67